Time;durP1;ratioP1;P1;durP2;ratioP2;P2;SDS_P1;SDS_P2;PMS_P1;PMS_P2;Temp;Humidity;BMP_temperature;BMP_pressure;BME280_temperature;BME280_humidity;BME280_pressure;Samples;Min_cycle;Max_cycle;Signal;HPM_P1;HPM_P2
2023/05/30 11:26:17;;;;;;;8.27;4.18;;;14.30;99.90;;;;;;6238101;23;20028;-51
2023/05/30 11:28:44;;;;;;;5.00;3.45;;;14.40;99.90;;;;;;6211234;23;20138;-53
2023/05/30 11:31:19;;;;;;;7.30;4.45;;;14.60;99.90;;;;;;6170616;23;20052;-58
2023/05/30 11:33:46;;;;;;;7.57;4.95;;;14.70;99.90;;;;;;6124229;23;20015;-53
2023/05/30 11:36:12;;;;;;;7.30;4.88;;;14.60;99.90;;;;;;6123707;23;20452;-53
2023/05/30 11:38:46;;;;;;;8.57;3.60;;;14.80;99.90;;;;;;6149809;23;20025;-53
2023/05/30 11:41:16;;;;;;;4.22;3.25;;;14.90;99.90;;;;;;6148990;23;20063;-54
2023/05/30 11:43:43;;;;;;;7.75;4.68;;;15.00;99.90;;;;;;6148965;23;20645;-55
2023/05/30 11:46:09;;;;;;;8.05;4.15;;;15.10;99.90;;;;;;6149395;23;20020;-58
2023/05/30 11:48:35;;;;;;;10.02;5.03;;;15.10;99.90;;;;;;6150218;23;20005;-55
2023/05/30 11:51:00;;;;;;;8.00;3.40;;;14.90;99.90;;;;;;6150054;23;20819;-57
2023/05/30 11:53:26;;;;;;;5.47;3.47;;;14.90;99.90;;;;;;6149323;23;20085;-56
2023/05/30 11:55:52;;;;;;;6.95;4.07;;;15.10;99.90;;;;;;6149940;23;20626;-57
2023/05/30 11:58:19;;;;;;;6.72;4.00;;;15.20;99.90;;;;;;6149386;23;20005;-59
2023/05/30 12:00:48;;;;;;;6.25;3.97;;;15.40;99.90;;;;;;6149510;23;20013;-56
2023/05/30 12:03:16;;;;;;;6.95;4.75;;;15.20;99.90;;;;;;6148990;23;20029;-56
2023/05/30 12:05:46;;;;;;;6.53;3.45;;;15.20;99.90;;;;;;6149751;23;20006;-58
2023/05/30 12:08:19;;;;;;;7.60;3.65;;;15.20;99.90;;;;;;6149643;23;20235;-57
2023/05/30 12:10:45;;;;;;;6.80;4.30;;;15.30;99.90;;;;;;6123028;23;20520;-58
2023/05/30 12:13:11;;;;;;;8.30;4.43;;;15.30;99.90;;;;;;6149591;23;20005;-56
2023/05/30 12:15:37;;;;;;;5.88;4.05;;;15.20;99.90;;;;;;6149387;23;20016;-57
2023/05/30 12:18:02;;;;;;;8.57;4.15;;;15.20;99.90;;;;;;6123396;23;20101;-59
2023/05/30 12:20:28;;;;;;;9.70;4.72;;;15.10;99.90;;;;;;6149214;23;20032;-56
2023/05/30 12:22:53;;;;;;;6.38;3.90;;;15.10;99.90;;;;;;6148788;23;20005;-56
2023/05/30 12:25:26;;;;;;;7.43;4.60;;;15.20;99.90;;;;;;6147993;23;20021;-56
2023/05/30 12:27:54;;;;;;;6.75;4.63;;;15.20;99.90;;;;;;6149628;23;20060;-57
2023/05/30 12:30:20;;;;;;;8.02;4.93;;;15.30;99.90;;;;;;6122286;23;20009;-53
2023/05/30 12:32:46;;;;;;;5.70;4.47;;;15.40;99.90;;;;;;6148759;23;20005;-51
2023/05/30 12:35:12;;;;;;;5.90;4.35;;;15.50;99.90;;;;;;6147317;23;20028;-53
2023/05/30 12:37:38;;;;;;;4.47;3.50;;;15.70;99.90;;;;;;6149039;23;20318;-57
2023/05/30 12:40:06;;;;;;;4.93;3.83;;;15.80;99.90;;;;;;6149951;23;20036;-59
2023/05/30 12:42:33;;;;;;;5.47;3.83;;;15.80;99.90;;;;;;6149640;23;20005;-56
2023/05/30 12:45:05;;;;;;;6.25;3.40;;;15.70;99.90;;;;;;6148508;23;20430;-54
2023/05/30 12:47:31;;;;;;;5.43;3.00;;;15.90;99.90;;;;;;6149542;23;20016;-54
2023/05/30 12:49:57;;;;;;;6.05;3.17;;;16.00;99.90;;;;;;6150004;23;20036;-56
2023/05/30 12:52:28;;;;;;;4.43;3.03;;;16.20;99.90;;;;;;6148843;23;20072;-55
2023/05/30 12:54:54;;;;;;;9.98;4.03;;;16.30;99.90;;;;;;6149539;23;20009;-52
2023/05/30 12:57:24;;;;;;;5.63;3.83;;;16.60;99.90;;;;;;6149665;23;20442;-51
2023/05/30 12:59:50;;;;;;;4.00;2.63;;;16.70;99.90;;;;;;6149375;23;20402;-51
2023/05/30 13:02:16;;;;;;;6.43;3.80;;;16.80;99.90;;;;;;6122866;23;20037;-57
2023/05/30 13:04:42;;;;;;;5.40;3.08;;;16.80;99.90;;;;;;6122870;23;20132;-57
2023/05/30 13:07:11;;;;;;;6.55;3.40;;;16.80;99.90;;;;;;6149479;23;20520;-54
2023/05/30 13:09:38;;;;;;;8.60;3.85;;;16.80;99.90;;;;;;6149616;23;20005;-55
2023/05/30 13:12:08;;;;;;;5.30;3.53;;;16.80;99.90;;;;;;6149832;23;20394;-58
2023/05/30 13:14:34;;;;;;;4.43;2.90;;;16.70;99.90;;;;;;6149109;23;20008;-55
2023/05/30 13:16:59;;;;;;;9.98;2.92;;;16.80;99.90;;;;;;6149949;23;20002;-60
2023/05/30 13:19:25;;;;;;;6.50;3.60;;;16.90;99.90;;;;;;6149732;23;20006;-55
2023/05/30 13:21:51;;;;;;;6.50;3.60;;;16.70;99.90;;;;;;6149868;23;20496;-57
2023/05/30 13:24:16;;;;;;;6.55;3.35;;;16.80;99.90;;;;;;6147945;23;20005;-55
2023/05/30 13:26:42;;;;;;;3.53;3.03;;;16.90;99.90;;;;;;6149281;23;20002;-57
2023/05/30 13:29:07;;;;;;;4.38;3.63;;;17.00;99.90;;;;;;6149123;23;20012;-58
2023/05/30 13:31:34;;;;;;;5.47;3.47;;;17.00;99.90;;;;;;6167544;23;20017;-54
2023/05/30 13:34:00;;;;;;;4.07;3.20;;;17.10;99.90;;;;;;6178928;23;20004;-55
2023/05/30 13:36:25;;;;;;;6.25;3.55;;;17.00;99.90;;;;;;6179063;23;20001;-58
2023/05/30 13:38:52;;;;;;;5.03;3.30;;;16.90;99.90;;;;;;6179397;23;20032;-56
2023/05/30 13:41:18;;;;;;;3.25;2.78;;;17.00;99.90;;;;;;6179535;23;20085;-58
2023/05/30 13:43:44;;;;;;;3.25;2.95;;;17.00;99.90;;;;;;6178538;23;20036;-55
2023/05/30 13:46:09;;;;;;;4.97;3.20;;;17.00;99.90;;;;;;6152436;23;20068;-56
2023/05/30 13:48:35;;;;;;;5.15;3.60;;;17.00;99.90;;;;;;6179278;23;20381;-53
2023/05/30 13:51:01;;;;;;;4.20;3.58;;;17.00;99.90;;;;;;6180923;23;20028;-52
2023/05/30 13:53:26;;;;;;;5.68;3.50;;;17.10;99.90;;;;;;6179881;23;20009;-54
2023/05/30 13:55:52;;;;;;;4.65;3.40;;;17.20;99.90;;;;;;6154090;23;20241;-58
2023/05/30 13:58:18;;;;;;;6.20;3.75;;;17.30;99.90;;;;;;6180826;23;20008;-58
2023/05/30 14:00:43;;;;;;;7.18;3.92;;;17.20;99.90;;;;;;6179914;23;20009;-56
2023/05/30 14:03:09;;;;;;;4.13;3.20;;;17.40;99.90;;;;;;6180850;23;20388;-57
2023/05/30 14:05:35;;;;;;;3.80;2.47;;;17.50;99.90;;;;;;6180296;23;20005;-55
2023/05/30 14:08:02;;;;;;;4.18;2.92;;;17.70;99.90;;;;;;6180875;23;20538;-59
2023/05/30 14:10:28;;;;;;;4.78;3.75;;;17.70;99.90;;;;;;6180675;23;20001;-58
2023/05/30 14:12:54;;;;;;;3.83;3.22;;;17.50;99.90;;;;;;6154433;23;20008;-57
2023/05/30 14:15:21;;;;;;;5.60;3.95;;;17.40;99.90;;;;;;6153404;23;20009;-58
2023/05/30 14:17:46;;;;;;;8.57;4.18;;;17.50;99.90;;;;;;6181161;23;20001;-58
2023/05/30 14:20:12;;;;;;;6.50;4.90;;;17.60;99.90;;;;;;6180711;23;20284;-55
2023/05/30 14:22:38;;;;;;;7.25;4.47;;;17.60;99.90;;;;;;6179812;23;20009;-60
2023/05/30 14:25:04;;;;;;;6.03;4.07;;;17.50;99.90;;;;;;6180555;23;20005;-59
2023/05/30 14:27:31;;;;;;;5.85;4.45;;;17.30;99.90;;;;;;6180538;23;20367;-57
2023/05/30 14:29:57;;;;;;;7.25;4.75;;;17.40;99.90;;;;;;6180465;23;20024;-56
2023/05/30 14:32:23;;;;;;;7.22;3.70;;;17.40;99.90;;;;;;6179912;23;20024;-56
2023/05/30 14:34:49;;;;;;;7.00;4.85;;;17.50;99.90;;;;;;6180080;23;20005;-58
2023/05/30 14:37:14;;;;;;;4.97;3.70;;;17.50;99.90;;;;;;6180009;23;20102;-57
2023/05/30 14:39:40;;;;;;;6.20;4.00;;;17.50;99.90;;;;;;6180431;23;20005;-54
2023/05/30 14:42:06;;;;;;;8.43;3.97;;;17.50;99.90;;;;;;6154779;23;20005;-60
2023/05/30 14:44:32;;;;;;;7.80;4.18;;;17.40;99.90;;;;;;6179253;23;20005;-58
2023/05/30 14:46:58;;;;;;;4.13;3.60;;;17.50;99.90;;;;;;6180515;23;20016;-59
2023/05/30 14:49:24;;;;;;;7.53;4.18;;;17.50;99.90;;;;;;6153530;23;20063;-59
2023/05/30 14:51:50;;;;;;;7.57;4.00;;;17.50;99.90;;;;;;6180321;23;20011;-57
2023/05/30 14:54:16;;;;;;;5.90;3.65;;;17.60;99.90;;;;;;6152498;23;20313;-61
2023/05/30 14:56:42;;;;;;;6.00;3.40;;;17.40;99.90;;;;;;6178845;23;20046;-59
2023/05/30 14:59:07;;;;;;;4.57;3.42;;;17.40;99.90;;;;;;6179605;23;20055;-59
2023/05/30 15:01:33;;;;;;;5.40;3.28;;;17.60;99.90;;;;;;6179728;23;20013;-59
2023/05/30 15:04:00;;;;;;;5.38;3.45;;;17.70;99.90;;;;;;6153092;23;20071;-58
2023/05/30 15:06:25;;;;;;;6.10;3.28;;;17.90;99.90;;;;;;6179807;23;20045;-57
2023/05/30 15:08:51;;;;;;;5.93;3.15;;;18.10;99.90;;;;;;6179798;23;20008;-59
2023/05/30 15:11:17;;;;;;;5.22;2.85;;;18.10;99.90;;;;;;6180083;23;20491;-55
2023/05/30 15:13:42;;;;;;;6.97;3.00;;;18.10;99.90;;;;;;6180152;23;20019;-58
2023/05/30 15:16:08;;;;;;;6.32;2.72;;;18.20;99.90;;;;;;6153816;23;20006;-53
2023/05/30 15:18:33;;;;;;;5.82;2.83;;;18.30;99.90;;;;;;6180043;23;20004;-57
2023/05/30 15:20:59;;;;;;;5.50;3.03;;;18.20;99.90;;;;;;6180520;23;20333;-56
2023/05/30 15:23:25;;;;;;;4.63;2.78;;;18.10;99.90;;;;;;6179719;23;20012;-55
2023/05/30 15:25:50;;;;;;;6.15;2.75;;;18.10;99.90;;;;;;6152846;23;20048;-58
2023/05/30 15:28:16;;;;;;;4.10;2.63;;;18.10;99.90;;;;;;6180365;23;20012;-59
2023/05/30 15:30:41;;;;;;;6.82;3.15;;;18.00;99.90;;;;;;6179204;23;20020;-60
2023/05/30 15:33:07;;;;;;;5.32;2.60;;;17.90;99.90;;;;;;6179613;23;20005;-60
2023/05/30 15:35:33;;;;;;;4.60;2.75;;;17.80;99.90;;;;;;6179681;23;20009;-60
2023/05/30 15:37:58;;;;;;;7.13;3.08;;;17.80;99.90;;;;;;6180040;23;20022;-59
2023/05/30 15:40:24;;;;;;;8.05;3.53;;;17.50;99.90;;;;;;6179840;23;20012;-58
2023/05/30 15:42:49;;;;;;;7.78;4.57;;;17.60;99.90;;;;;;6179424;23;20067;-58
2023/05/30 15:45:15;;;;;;;4.43;2.85;;;17.80;99.90;;;;;;6179801;23;20001;-60
2023/05/30 15:47:40;;;;;;;5.30;3.17;;;17.90;99.90;;;;;;6178444;23;20001;-62
2023/05/30 15:50:11;;;;;;;9.40;4.72;;;17.90;99.90;;;;;;6179611;23;20015;-59
2023/05/30 15:52:37;;;;;;;6.43;3.45;;;17.90;99.90;;;;;;6179528;23;20005;-60
2023/05/30 15:55:03;;;;;;;4.78;2.67;;;17.90;99.90;;;;;;6179786;23;20344;-57
2023/05/30 15:57:28;;;;;;;12.70;8.93;;;18.00;99.90;;;;;;6179669;23;20002;-60
2023/05/30 15:59:54;;;;;;;5.47;3.28;;;18.10;99.90;;;;;;6179783;23;20005;-59
2023/05/30 16:02:20;;;;;;;4.70;2.28;;;18.10;99.90;;;;;;6178752;23;20013;-59
2023/05/30 16:04:45;;;;;;;34.25;29.85;;;18.10;99.90;;;;;;6178938;23;20001;-61
2023/05/30 16:07:11;;;;;;;4.07;2.83;;;18.20;99.90;;;;;;6179768;23;20091;-62
2023/05/30 16:09:38;;;;;;;6.03;3.10;;;18.10;99.90;;;;;;6179492;23;20085;-59
2023/05/30 16:12:07;;;;;;;8.65;3.00;;;18.00;99.90;;;;;;6152667;23;20016;-62
2023/05/30 16:14:36;;;;;;;5.18;2.17;;;18.00;99.90;;;;;;6179246;23;20012;-59
2023/05/30 16:17:02;;;;;;;3.60;2.78;;;18.00;99.90;;;;;;6179386;23;20001;-60
2023/05/30 16:19:28;;;;;;;4.03;2.47;;;18.10;99.90;;;;;;6179272;23;20028;-59
2023/05/30 16:21:54;;;;;;;3.00;1.90;;;18.00;99.90;;;;;;6179502;23;20001;-58
2023/05/30 16:24:20;;;;;;;18.70;14.85;;;18.00;99.90;;;;;;6177936;23;20124;-59
2023/05/30 16:26:46;;;;;;;191.27;144.02;;;18.10;99.90;;;;;;6179845;23;20005;-59
2023/05/30 16:29:12;;;;;;;138.20;97.97;;;18.10;99.90;;;;;;6179719;23;20005;-53
2023/05/30 16:31:37;;;;;;;77.05;57.97;;;18.30;99.90;;;;;;6178638;23;20025;-57
2023/05/30 16:34:03;;;;;;;42.42;33.00;;;18.30;99.90;;;;;;6177923;23;20051;-59
2023/05/30 16:36:28;;;;;;;8.63;3.50;;;18.40;99.90;;;;;;6178543;23;20021;-62
2023/05/30 16:38:55;;;;;;;4.35;2.67;;;18.30;99.90;;;;;;6179576;23;20001;-60
2023/05/30 16:41:22;;;;;;;3.33;2.10;;;18.10;99.90;;;;;;6179127;23;20400;-60
2023/05/30 16:43:48;;;;;;;6.82;2.33;;;18.00;99.90;;;;;;6179479;23;20008;-61
2023/05/30 16:46:15;;;;;;;4.18;2.70;;;18.00;99.90;;;;;;6177499;23;20013;-57
2023/05/30 16:48:41;;;;;;;4.85;1.77;;;18.00;99.90;;;;;;6179307;23;20107;-59
2023/05/30 16:51:08;;;;;;;5.30;2.40;;;18.10;99.90;;;;;;6179641;23;20005;-60
2023/05/30 16:53:33;;;;;;;4.43;2.20;;;18.20;99.90;;;;;;6177938;23;20009;-61
2023/05/30 16:56:02;;;;;;;3.08;1.85;;;18.30;99.90;;;;;;6178777;23;20071;-53
2023/05/30 16:58:28;;;;;;;4.88;1.83;;;18.30;99.90;;;;;;6178857;23;20337;-60
2023/05/30 17:00:53;;;;;;;4.68;1.63;;;18.30;99.90;;;;;;6178764;23;20014;-60
2023/05/30 17:03:19;;;;;;;6.95;2.10;;;18.30;99.90;;;;;;6179569;23;20008;-58
2023/05/30 17:05:45;;;;;;;4.88;1.55;;;18.30;98.50;;;;;;6178967;23;20004;-59
2023/05/30 17:08:11;;;;;;;4.25;2.10;;;18.20;98.40;;;;;;6178318;23;20015;-59
2023/05/30 17:10:37;;;;;;;3.10;1.30;;;18.20;98.60;;;;;;6179515;23;20009;-59
2023/05/30 17:13:02;;;;;;;4.18;1.83;;;18.10;97.60;;;;;;6179033;23;20397;-57
2023/05/30 17:15:28;;;;;;;4.05;1.40;;;18.20;97.60;;;;;;6178800;23;20056;-57
2023/05/30 17:17:53;;;;;;;4.53;1.63;;;18.20;97.40;;;;;;6179361;23;20009;-60
2023/05/30 17:20:19;;;;;;;5.00;1.50;;;18.10;97.20;;;;;;6178947;23;20001;-60
2023/05/30 17:22:45;;;;;;;2.33;1.30;;;18.10;97.00;;;;;;6178475;23;20008;-61
2023/05/30 17:25:11;;;;;;;2.78;1.23;;;18.10;95.40;;;;;;6180316;23;20410;-55
2023/05/30 17:27:37;;;;;;;3.92;1.85;;;17.90;95.00;;;;;;6181276;23;20092;-59
2023/05/30 17:30:04;;;;;;;5.10;1.92;;;17.90;94.60;;;;;;6180024;23;20059;-59
2023/05/30 17:32:30;;;;;;;3.83;1.90;;;17.90;94.50;;;;;;6180746;23;20019;-57
2023/05/30 17:34:55;;;;;;;2.55;1.42;;;17.80;94.70;;;;;;6180676;23;20068;-56
2023/05/30 17:37:24;;;;;;;4.47;1.58;;;17.80;95.50;;;;;;6180918;23;20009;-57
2023/05/30 17:39:50;;;;;;;3.58;1.45;;;17.70;93.70;;;;;;6181901;23;20381;-59
2023/05/30 17:42:16;;;;;;;2.42;1.60;;;17.70;92.20;;;;;;6181194;23;20425;-56
2023/05/30 17:44:41;;;;;;;2.97;1.63;;;17.70;91.90;;;;;;6180535;23;20008;-59
2023/05/30 17:47:07;;;;;;;4.68;1.38;;;17.60;91.90;;;;;;6180811;23;20025;-58
2023/05/30 17:49:32;;;;;;;3.45;1.80;;;17.60;91.30;;;;;;6180816;23;20009;-55
2023/05/30 17:51:58;;;;;;;2.10;1.33;;;17.60;92.00;;;;;;6180524;23;20035;-54
2023/05/30 17:54:23;;;;;;;4.32;1.92;;;17.60;92.30;;;;;;6153252;23;20511;-58
2023/05/30 17:56:49;;;;;;;1.83;1.30;;;17.50;92.40;;;;;;6180913;23;20108;-57
2023/05/30 17:59:16;;;;;;;5.28;1.58;;;17.40;92.10;;;;;;6180797;23;20374;-58
2023/05/30 18:01:41;;;;;;;3.08;1.45;;;17.40;92.60;;;;;;6180538;23;20113;-55
2023/05/30 18:04:07;;;;;;;3.97;1.75;;;17.30;91.40;;;;;;6179363;23;20022;-58
2023/05/30 18:06:33;;;;;;;4.30;1.50;;;17.30;92.30;;;;;;6180843;23;20446;-58
2023/05/30 18:08:58;;;;;;;3.83;1.38;;;17.30;92.40;;;;;;6179946;23;20001;-56
2023/05/30 18:11:25;;;;;;;4.38;1.10;;;17.20;93.50;;;;;;6180846;23;20425;-56
2023/05/30 18:13:51;;;;;;;2.78;1.65;;;17.20;93.50;;;;;;6180515;23;20092;-57
2023/05/30 18:16:16;;;;;;;3.92;2.15;;;17.20;93.80;;;;;;6181292;23;20425;-56
2023/05/30 18:18:42;;;;;;;5.13;2.00;;;17.10;93.60;;;;;;6153961;23;20016;-53
2023/05/30 18:21:07;;;;;;;5.13;2.28;;;17.00;93.80;;;;;;6153971;23;20658;-55
2023/05/30 18:23:34;;;;;;;2.63;1.67;;;17.00;94.40;;;;;;6180144;23;20393;-53
2023/05/30 18:26:01;;;;;;;4.30;1.77;;;16.90;94.90;;;;;;6176405;23;20283;-55
2023/05/30 18:28:27;;;;;;;3.30;1.50;;;16.90;95.20;;;;;;6178244;23;20448;-56
2023/05/30 18:30:52;;;;;;;3.70;1.80;;;16.80;95.60;;;;;;6178409;23;20040;-54
2023/05/30 18:33:18;;;;;;;6.28;2.20;;;16.80;96.40;;;;;;6180394;23;20496;-56
2023/05/30 18:35:43;;;;;;;5.57;2.13;;;16.70;95.20;;;;;;6179836;23;20012;-53
2023/05/30 18:38:09;;;;;;;1.88;1.35;;;16.70;94.30;;;;;;6177595;23;20029;-55
2023/05/30 18:40:35;;;;;;;4.03;1.42;;;16.70;94.10;;;;;;6180510;23;20020;-54
2023/05/30 18:43:00;;;;;;;3.10;1.25;;;16.60;94.80;;;;;;6180604;23;20467;-56
2023/05/30 18:45:26;;;;;;;5.65;2.47;;;16.50;95.10;;;;;;6180431;23;20456;-55
2023/05/30 18:47:51;;;;;;;4.55;2.17;;;16.50;95.20;;;;;;6179643;23;20507;-57
2023/05/30 18:50:17;;;;;;;2.97;1.50;;;16.40;95.70;;;;;;6180919;23;20016;-58
2023/05/30 18:52:42;;;;;;;3.33;2.05;;;16.30;95.80;;;;;;6178563;23;20086;-56
2023/05/30 18:55:08;;;;;;;2.65;1.52;;;16.30;96.00;;;;;;6179937;23;20000;-57
2023/05/30 18:57:33;;;;;;;2.75;1.42;;;16.20;96.10;;;;;;6179793;23;20081;-57
2023/05/30 18:59:59;;;;;;;3.10;1.40;;;16.20;96.80;;;;;;6180352;23;19997;-56
2023/05/30 19:02:25;;;;;;;2.97;1.60;;;16.10;97.50;;;;;;6152765;23;20017;-54
2023/05/30 19:04:51;;;;;;;2.25;1.40;;;16.00;97.90;;;;;;6178879;23;20397;-56
2023/05/30 19:07:17;;;;;;;3.85;1.70;;;15.90;97.80;;;;;;6180010;23;20001;-56
2023/05/30 19:09:45;;;;;;;2.30;1.42;;;15.90;98.20;;;;;;6179858;23;20064;-55
2023/05/30 19:12:11;;;;;;;2.97;1.55;;;15.80;98.40;;;;;;6179897;23;20021;-55
2023/05/30 19:14:37;;;;;;;2.60;1.65;;;15.70;98.50;;;;;;6179367;23;20518;-53
2023/05/30 19:17:03;;;;;;;4.75;2.03;;;15.60;98.80;;;;;;6179696;23;20001;-54
2023/05/30 19:19:28;;;;;;;6.20;1.73;;;15.50;99.00;;;;;;6179865;23;20007;-58
2023/05/30 19:21:54;;;;;;;4.35;1.88;;;15.50;99.20;;;;;;6180540;23;20005;-55
2023/05/30 19:24:20;;;;;;;4.78;1.92;;;15.40;99.60;;;;;;6179973;23;20012;-57
2023/05/30 19:26:45;;;;;;;4.57;1.85;;;15.30;99.20;;;;;;6180010;23;19997;-55
2023/05/30 19:29:11;;;;;;;5.50;1.88;;;15.20;99.60;;;;;;6179701;23;20072;-52
2023/05/30 19:31:36;;;;;;;2.50;1.83;;;15.20;99.90;;;;;;6178637;23;20025;-55
2023/05/30 19:34:02;;;;;;;3.10;1.90;;;15.10;99.90;;;;;;6179077;23;20145;-53
2023/05/30 19:36:27;;;;;;;7.30;2.10;;;15.10;99.90;;;;;;6179505;23;20051;-54
2023/05/30 19:38:53;;;;;;;3.05;1.55;;;15.00;99.90;;;;;;6178692;23;20024;-55
2023/05/30 19:41:20;;;;;;;2.35;1.45;;;14.90;99.90;;;;;;6154156;23;20345;-53
2023/05/30 19:43:46;;;;;;;2.45;1.65;;;14.80;99.90;;;;;;6180380;23;20008;-56
2023/05/30 19:46:12;;;;;;;4.20;2.53;;;14.80;99.90;;;;;;6180047;23;20005;-54
2023/05/30 19:48:37;;;;;;;3.63;1.63;;;14.70;99.90;;;;;;6180368;23;20047;-51
2023/05/30 19:51:03;;;;;;;2.47;1.90;;;14.60;99.90;;;;;;6180711;23;20012;-58
2023/05/30 19:53:29;;;;;;;2.22;1.52;;;14.50;99.90;;;;;;6179024;23;20005;-53
2023/05/30 19:55:54;;;;;;;3.60;1.55;;;14.50;99.90;;;;;;6180494;23;20283;-53
2023/05/30 19:58:22;;;;;;;4.90;1.98;;;14.40;99.90;;;;;;6180478;23;20004;-54
2023/05/30 20:00:48;;;;;;;3.60;2.28;;;14.30;99.90;;;;;;6153628;23;20461;-55
2023/05/30 20:03:14;;;;;;;2.72;2.10;;;14.20;99.90;;;;;;6180506;23;20008;-56
2023/05/30 20:05:40;;;;;;;2.50;1.85;;;14.10;99.90;;;;;;6179582;23;20334;-53
2023/05/30 20:08:06;;;;;;;5.05;2.28;;;14.00;99.90;;;;;;6180523;23;20024;-53
2023/05/30 20:10:33;;;;;;;3.35;2.47;;;13.90;99.90;;;;;;6180009;23;20096;-52
2023/05/30 20:12:59;;;;;;;3.45;1.77;;;13.80;99.90;;;;;;6180684;23;20005;-56
2023/05/30 20:15:25;;;;;;;5.60;2.30;;;13.70;99.90;;;;;;6179924;23;20077;-53
2023/05/30 20:17:55;;;;;;;6.30;1.92;;;13.70;99.90;;;;;;6180458;23;19997;-52
2023/05/30 20:20:21;;;;;;;4.32;2.38;;;13.70;99.90;;;;;;6180439;23;20456;-51
2023/05/30 20:22:46;;;;;;;4.78;2.00;;;13.60;99.90;;;;;;6180463;23;20001;-52
2023/05/30 20:25:12;;;;;;;2.50;1.90;;;13.50;99.90;;;;;;6179941;23;20012;-53
2023/05/30 20:27:37;;;;;;;3.85;2.15;;;13.40;99.90;;;;;;6180368;23;20009;-51
2023/05/30 20:30:04;;;;;;;6.03;2.20;;;13.40;99.90;;;;;;6180018;23;20005;-54
2023/05/30 20:32:30;;;;;;;3.33;1.67;;;13.30;99.90;;;;;;6180083;23;20298;-50
2023/05/30 20:34:55;;;;;;;3.50;2.03;;;13.30;99.90;;;;;;6180226;23;20441;-54
2023/05/30 20:37:21;;;;;;;4.25;1.95;;;13.20;99.90;;;;;;6178955;23;20426;-56
2023/05/30 20:39:47;;;;;;;5.13;2.22;;;13.10;99.90;;;;;;6179198;23;19997;-51
2023/05/30 20:42:17;;;;;;;5.57;2.40;;;13.10;99.90;;;;;;6152585;23;20009;-56
2023/05/30 20:44:43;;;;;;;3.65;2.25;;;13.00;99.90;;;;;;6177407;23;20008;-55
2023/05/30 20:47:09;;;;;;;2.55;2.35;;;13.00;99.90;;;;;;6177505;23;20476;-53
2023/05/30 20:49:42;;;;;;;2.63;2.03;;;13.00;99.90;;;;;;6179028;23;20001;-55
2023/05/30 20:52:08;;;;;;;4.75;2.58;;;12.90;99.90;;;;;;6180188;23;20016;-55
2023/05/30 20:54:34;;;;;;;5.32;2.20;;;12.80;99.90;;;;;;6177154;23;20009;-52
2023/05/30 20:57:00;;;;;;;5.85;2.53;;;12.70;99.90;;;;;;6180333;23;20337;-57
2023/05/30 20:59:27;;;;;;;5.00;2.20;;;12.60;99.90;;;;;;6180155;23;20006;-50
2023/05/30 21:01:52;;;;;;;4.60;2.58;;;12.60;99.90;;;;;;6179406;23;20092;-55
2023/05/30 21:04:18;;;;;;;4.40;2.03;;;12.50;99.90;;;;;;6179509;23;20040;-52
2023/05/30 21:06:43;;;;;;;3.72;2.38;;;12.40;99.90;;;;;;6180054;23;20484;-57
2023/05/30 21:09:09;;;;;;;4.45;2.50;;;12.40;99.90;;;;;;6177479;23;20009;-55
2023/05/30 21:11:34;;;;;;;5.35;2.10;;;12.30;99.90;;;;;;6151532;23;20352;-52
2023/05/30 21:14:00;;;;;;;3.83;2.40;;;12.20;99.90;;;;;;6150479;23;20460;-55
2023/05/30 21:16:26;;;;;;;6.75;2.83;;;12.10;99.90;;;;;;6179953;23;20084;-53
2023/05/30 21:18:51;;;;;;;3.85;2.45;;;12.10;99.90;;;;;;6179913;23;20004;-52
2023/05/30 21:21:17;;;;;;;5.93;2.35;;;12.00;99.90;;;;;;6180050;23;20001;-55
2023/05/30 21:23:43;;;;;;;6.45;2.53;;;11.90;99.90;;;;;;6179841;23;20009;-52
2023/05/30 21:26:09;;;;;;;5.43;2.25;;;11.90;99.90;;;;;;6179666;23;20079;-52
2023/05/30 21:28:34;;;;;;;4.47;2.33;;;11.80;99.90;;;;;;6180047;23;20009;-55
2023/05/30 21:31:00;;;;;;;4.68;2.30;;;11.80;99.90;;;;;;6178676;23;20361;-55
2023/05/30 21:33:25;;;;;;;5.32;2.67;;;11.70;99.90;;;;;;6179659;23;20005;-53
2023/05/30 21:35:51;;;;;;;4.65;2.67;;;11.70;99.90;;;;;;6179565;23;20001;-55
2023/05/30 21:38:18;;;;;;;5.82;2.35;;;11.70;99.90;;;;;;6179796;23;20001;-53
2023/05/30 21:40:44;;;;;;;4.25;2.78;;;11.60;99.90;;;;;;6179155;23;20033;-50
2023/05/30 21:43:10;;;;;;;6.97;3.08;;;11.60;99.90;;;;;;6179817;23;20003;-54
2023/05/30 21:45:38;;;;;;;5.10;2.47;;;11.50;99.90;;;;;;6178491;23;20242;-54
2023/05/30 21:48:04;;;;;;;4.60;2.30;;;11.50;99.90;;;;;;6176251;23;20035;-51
2023/05/30 21:50:30;;;;;;;4.53;2.72;;;11.40;99.90;;;;;;6177632;23;20005;-52
2023/05/30 21:52:55;;;;;;;4.72;2.58;;;11.40;99.90;;;;;;6178399;23;20395;-51
2023/05/30 21:55:21;;;;;;;4.63;2.53;;;11.30;99.90;;;;;;6179294;23;20374;-51
2023/05/30 21:57:47;;;;;;;3.35;2.33;;;11.30;99.90;;;;;;6178040;23;20012;-53
2023/05/30 22:00:13;;;;;;;5.22;2.10;;;11.30;99.90;;;;;;6178959;23;20064;-51
2023/05/30 22:02:39;;;;;;;5.13;2.50;;;11.20;99.90;;;;;;6180025;23;20001;-53
2023/05/30 22:05:05;;;;;;;3.45;2.60;;;11.20;99.90;;;;;;6152821;23;20006;-56
2023/05/30 22:07:31;;;;;;;8.50;3.17;;;11.10;99.90;;;;;;6179751;23;20001;-53
2023/05/30 22:09:56;;;;;;;4.75;2.90;;;11.10;99.90;;;;;;6180564;23;20012;-51
2023/05/30 22:12:22;;;;;;;6.63;3.30;;;11.10;99.90;;;;;;6181451;23;20009;-53
2023/05/30 22:14:47;;;;;;;6.53;3.20;;;11.00;99.90;;;;;;6181499;23;20008;-51
2023/05/30 22:17:13;;;;;;;6.25;2.72;;;11.00;99.90;;;;;;6181819;23;20352;-54
2023/05/30 22:19:39;;;;;;;5.93;2.85;;;10.90;99.90;;;;;;6182142;23;20365;-53
2023/05/30 22:22:05;;;;;;;5.30;2.53;;;10.90;99.90;;;;;;6181912;23;20009;-54
2023/05/30 22:24:33;;;;;;;3.72;2.28;;;10.90;99.90;;;;;;6181304;23;20072;-55
2023/05/30 22:26:59;;;;;;;5.03;3.08;;;10.90;99.90;;;;;;6181699;23;20143;-56
2023/05/30 22:29:25;;;;;;;5.85;2.97;;;10.80;99.90;;;;;;6179912;23;20063;-56
2023/05/30 22:31:50;;;;;;;4.43;2.42;;;10.80;99.90;;;;;;6181164;23;20042;-52
2023/05/30 22:34:16;;;;;;;4.28;2.40;;;10.80;99.90;;;;;;6181291;23;20012;-54
2023/05/30 22:36:42;;;;;;;4.97;2.35;;;10.70;99.90;;;;;;6181359;23;20008;-56
2023/05/30 22:39:07;;;;;;;4.88;2.38;;;10.70;99.90;;;;;;6180830;23;19997;-53
2023/05/30 22:41:33;;;;;;;6.22;2.40;;;10.60;99.90;;;;;;6155052;23;20004;-51
2023/05/30 22:43:58;;;;;;;6.30;2.30;;;10.50;99.90;;;;;;6180614;23;20043;-51
2023/05/30 22:46:24;;;;;;;4.95;2.80;;;10.50;99.90;;;;;;6181317;23;20008;-56
2023/05/30 22:48:50;;;;;;;5.22;2.92;;;10.40;99.90;;;;;;6181536;23;20001;-54
2023/05/30 22:51:15;;;;;;;6.15;3.38;;;10.40;99.90;;;;;;6181611;23;20005;-51
2023/05/30 22:53:41;;;;;;;6.30;2.40;;;10.40;99.90;;;;;;6154569;23;20088;-53
2023/05/30 22:56:06;;;;;;;7.00;3.20;;;10.30;99.90;;;;;;6181167;23;20032;-52
2023/05/30 22:58:32;;;;;;;5.30;2.58;;;10.30;99.90;;;;;;6181219;23;20009;-50
2023/05/30 23:00:57;;;;;;;5.32;3.33;;;10.30;99.90;;;;;;6180655;23;20017;-52
2023/05/30 23:03:23;;;;;;;4.20;2.83;;;10.30;99.90;;;;;;6154985;23;20016;-54
2023/05/30 23:05:48;;;;;;;4.75;3.40;;;10.20;99.90;;;;;;6154726;23;20012;-55
2023/05/30 23:08:14;;;;;;;4.30;2.22;;;10.20;99.90;;;;;;6181136;23;20417;-53
2023/05/30 23:10:40;;;;;;;4.05;2.40;;;10.10;99.90;;;;;;6181473;23;20132;-51
2023/05/30 23:13:05;;;;;;;5.43;3.22;;;10.10;99.90;;;;;;6180832;23;20009;-51
2023/05/30 23:15:31;;;;;;;4.07;2.75;;;10.00;99.90;;;;;;6180688;23;20001;-51
2023/05/30 23:17:56;;;;;;;3.60;2.60;;;10.00;99.90;;;;;;6181163;23;20008;-53
2023/05/30 23:20:22;;;;;;;4.22;2.65;;;10.00;99.90;;;;;;6181584;23;20005;-54
2023/05/30 23:22:47;;;;;;;5.00;2.80;;;9.90;99.90;;;;;;6154444;23;20040;-51
2023/05/30 23:25:13;;;;;;;8.07;3.35;;;9.90;99.90;;;;;;6180994;23;20056;-56
2023/05/30 23:27:38;;;;;;;4.57;2.63;;;9.90;99.90;;;;;;6154268;23;20084;-50
2023/05/30 23:30:05;;;;;;;5.78;3.30;;;9.80;99.90;;;;;;6180272;23;20388;-54
2023/05/30 23:32:32;;;;;;;7.40;3.00;;;9.80;99.90;;;;;;6181639;23;20341;-50
2023/05/30 23:34:57;;;;;;;7.03;3.53;;;9.80;99.90;;;;;;6180699;23;20012;-50
2023/05/30 23:37:23;;;;;;;5.05;3.20;;;9.70;99.90;;;;;;6154496;23;20012;-56
2023/05/30 23:39:48;;;;;;;6.10;3.42;;;9.70;99.90;;;;;;6180398;23;20377;-52
2023/05/30 23:42:14;;;;;;;5.55;2.83;;;9.70;99.90;;;;;;6181534;23;20529;-54
2023/05/30 23:44:39;;;;;;;3.92;2.97;;;9.70;99.90;;;;;;6180225;23;20506;-52
2023/05/30 23:47:05;;;;;;;5.93;3.33;;;9.70;99.90;;;;;;6181052;23;20425;-53
2023/05/30 23:49:30;;;;;;;5.43;3.13;;;9.70;99.90;;;;;;6181260;23;20032;-52
2023/05/30 23:51:56;;;;;;;3.92;3.15;;;9.70;99.90;;;;;;6180565;23;20006;-52
2023/05/30 23:54:22;;;;;;;4.93;3.13;;;9.70;99.90;;;;;;6180024;23;20005;-52
2023/05/30 23:56:47;;;;;;;6.13;2.85;;;9.70;99.90;;;;;;6179275;23;20008;-54
2023/05/30 23:59:13;;;;;;;9.07;3.70;;;9.60;99.90;;;;;;6180916;23;20016;-51
